sensor_id;sensor_type;location;lat;lon;timestamp;pressure;altitude;pressure_sealevel;temperature;humidity
60589;BME280;46421;48.610;9.334;2022-07-29T00:00:42;97875.34;;;18.76;100.00
60589;BME280;46421;48.610;9.334;2022-07-29T00:03:07;97883.66;;;18.63;100.00
60589;BME280;46421;48.610;9.334;2022-07-29T00:05:32;97883.38;;;18.53;100.00
60589;BME280;46421;48.610;9.334;2022-07-29T00:07:58;97872.44;;;18.66;100.00
60589;BME280;46421;48.610;9.334;2022-07-29T00:10:23;97867.03;;;18.66;100.00
60589;BME280;46421;48.610;9.334;2022-07-29T00:12:48;97865.25;;;18.72;100.00
60589;BME280;46421;48.610;9.334;2022-07-29T00:15:14;97863.50;;;18.65;100.00
60589;BME280;46421;48.610;9.334;2022-07-29T00:17:40;97858.81;;;18.61;100.00
60589;BME280;46421;48.610;9.334;2022-07-29T00:20:06;97861.84;;;18.53;100.00
60589;BME280;46421;48.610;9.334;2022-07-29T00:22:31;97852.84;;;18.47;100.00
60589;BME280;46421;48.610;9.334;2022-07-29T00:24:56;97860.22;;;18.63;100.00
60589;BME280;46421;48.610;9.334;2022-07-29T00:27:22;97871.91;;;18.45;100.00
60589;BME280;46421;48.610;9.334;2022-07-29T00:29:47;97862.09;;;18.39;100.00
60589;BME280;46421;48.610;9.334;2022-07-29T00:32:13;97859.63;;;18.38;100.00
60589;BME280;46421;48.610;9.334;2022-07-29T00:34:38;97861.50;;;18.49;100.00
60589;BME280;46421;48.610;9.334;2022-07-29T00:37:03;97871.69;;;18.59;100.00
60589;BME280;46421;48.610;9.334;2022-07-29T00:39:29;97870.53;;;18.90;100.00
60589;BME280;46421;48.610;9.334;2022-07-29T00:41:54;97867.41;;;18.93;100.00
60589;BME280;46421;48.610;9.334;2022-07-29T00:44:19;97863.06;;;18.80;100.00
60589;BME280;46421;48.610;9.334;2022-07-29T00:46:45;97861.41;;;18.56;100.00
60589;BME280;46421;48.610;9.334;2022-07-29T00:49:10;97858.78;;;18.37;100.00
60589;BME280;46421;48.610;9.334;2022-07-29T00:51:36;97853.75;;;18.29;100.00
60589;BME280;46421;48.610;9.334;2022-07-29T00:54:03;97856.00;;;18.32;100.00
60589;BME280;46421;48.610;9.334;2022-07-29T00:56:30;97850.81;;;18.19;100.00
60589;BME280;46421;48.610;9.334;2022-07-29T00:58:56;97843.97;;;18.04;100.00
60589;BME280;46421;48.610;9.334;2022-07-29T01:01:22;97848.94;;;18.19;100.00
60589;BME280;46421;48.610;9.334;2022-07-29T01:03:47;97848.34;;;18.17;100.00
60589;BME280;46421;48.610;9.334;2022-07-29T01:06:12;97847.31;;;17.88;100.00
60589;BME280;46421;48.610;9.334;2022-07-29T01:08:38;97850.44;;;17.84;100.00
60589;BME280;46421;48.610;9.334;2022-07-29T01:11:03;97846.66;;;17.74;100.00
60589;BME280;46421;48.610;9.334;2022-07-29T01:13:30;97837.28;;;17.95;100.00
60589;BME280;46421;48.610;9.334;2022-07-29T01:16:09;97831.03;;;17.82;100.00
60589;BME280;46421;48.610;9.334;2022-07-29T01:18:44;97828.22;;;17.77;100.00
60589;BME280;46421;48.610;9.334;2022-07-29T01:26:52;97829.38;;;17.51;100.00
60589;BME280;46421;48.610;9.334;2022-07-29T01:29:36;97827.66;;;17.57;100.00
60589;BME280;46421;48.610;9.334;2022-07-29T01:32:10;97828.47;;;17.57;100.00
60589;BME280;46421;48.610;9.334;2022-07-29T01:34:46;97827.06;;;17.54;100.00
60589;BME280;46421;48.610;9.334;2022-07-29T01:37:24;97827.44;;;17.58;100.00
60589;BME280;46421;48.610;9.334;2022-07-29T01:39:52;97835.72;;;17.57;100.00
60589;BME280;46421;48.610;9.334;2022-07-29T01:44:53;97830.81;;;17.35;100.00
60589;BME280;46421;48.610;9.334;2022-07-29T01:47:25;97819.63;;;17.38;100.00
60589;BME280;46421;48.610;9.334;2022-07-29T01:49:54;97823.66;;;17.29;100.00
60589;BME280;46421;48.610;9.334;2022-07-29T01:52:27;97817.84;;;17.13;100.00
60589;BME280;46421;48.610;9.334;2022-07-29T01:54:59;97821.56;;;17.31;100.00
60589;BME280;46421;48.610;9.334;2022-07-29T01:57:31;97824.50;;;17.29;100.00
60589;BME280;46421;48.610;9.334;2022-07-29T01:59:59;97831.28;;;17.13;100.00
60589;BME280;46421;48.610;9.334;2022-07-29T02:02:26;97834.16;;;17.49;100.00
60589;BME280;46421;48.610;9.334;2022-07-29T02:04:53;97830.06;;;17.28;100.00
60589;BME280;46421;48.610;9.334;2022-07-29T02:07:21;97828.91;;;17.54;100.00
60589;BME280;46421;48.610;9.334;2022-07-29T02:09:49;97824.81;;;17.51;100.00
60589;BME280;46421;48.610;9.334;2022-07-29T02:12:16;97824.44;;;17.48;100.00
60589;BME280;46421;48.610;9.334;2022-07-29T02:14:45;97823.91;;;17.58;100.00
60589;BME280;46421;48.610;9.334;2022-07-29T02:17:13;97818.88;;;17.31;100.00
60589;BME280;46421;48.610;9.334;2022-07-29T02:19:39;97816.50;;;17.22;100.00
60589;BME280;46421;48.610;9.334;2022-07-29T02:22:06;97813.69;;;17.17;100.00
60589;BME280;46421;48.610;9.334;2022-07-29T02:24:35;97813.22;;;17.20;100.00
60589;BME280;46421;48.610;9.334;2022-07-29T02:27:03;97820.66;;;17.37;100.00
60589;BME280;46421;48.610;9.334;2022-07-29T02:29:30;97819.19;;;17.41;100.00
60589;BME280;46421;48.610;9.334;2022-07-29T02:31:58;97826.34;;;17.47;100.00
60589;BME280;46421;48.610;9.334;2022-07-29T02:34:25;97822.63;;;17.11;100.00
60589;BME280;46421;48.610;9.334;2022-07-29T02:36:51;97816.00;;;16.95;100.00
60589;BME280;46421;48.610;9.334;2022-07-29T02:39:17;97813.31;;;17.14;100.00
60589;BME280;46421;48.610;9.334;2022-07-29T02:41:47;97812.41;;;17.20;100.00
60589;BME280;46421;48.610;9.334;2022-07-29T02:44:15;97807.25;;;17.00;100.00
60589;BME280;46421;48.610;9.334;2022-07-29T02:46:54;97815.59;;;16.91;100.00
60589;BME280;46421;48.610;9.334;2022-07-29T02:52:09;97813.63;;;16.80;100.00
60589;BME280;46421;48.610;9.334;2022-07-29T02:54:41;97804.38;;;16.76;100.00
60589;BME280;46421;48.610;9.334;2022-07-29T02:57:30;97811.38;;;17.02;100.00
60589;BME280;46421;48.610;9.334;2022-07-29T02:59:58;97810.75;;;17.19;100.00
60589;BME280;46421;48.610;9.334;2022-07-29T03:02:25;97808.00;;;17.26;100.00
60589;BME280;46421;48.610;9.334;2022-07-29T03:04:52;97806.25;;;17.50;100.00
60589;BME280;46421;48.610;9.334;2022-07-29T03:07:20;97814.25;;;17.38;100.00
60589;BME280;46421;48.610;9.334;2022-07-29T03:09:45;97807.41;;;17.54;100.00
60589;BME280;46421;48.610;9.334;2022-07-29T03:12:11;97805.50;;;17.43;100.00
60589;BME280;46421;48.610;9.334;2022-07-29T03:14:38;97809.50;;;17.21;100.00
60589;BME280;46421;48.610;9.334;2022-07-29T03:17:04;97813.31;;;17.63;100.00
60589;BME280;46421;48.610;9.334;2022-07-29T03:19:31;97805.28;;;17.44;100.00
60589;BME280;46421;48.610;9.334;2022-07-29T03:21:57;97812.34;;;17.57;100.00
60589;BME280;46421;48.610;9.334;2022-07-29T03:26:51;97814.69;;;17.35;100.00
60589;BME280;46421;48.610;9.334;2022-07-29T03:29:17;97805.63;;;17.17;100.00
60589;BME280;46421;48.610;9.334;2022-07-29T03:31:42;97813.66;;;17.36;100.00
60589;BME280;46421;48.610;9.334;2022-07-29T03:34:07;97809.78;;;17.13;100.00
60589;BME280;46421;48.610;9.334;2022-07-29T03:36:33;97815.69;;;17.22;100.00
60589;BME280;46421;48.610;9.334;2022-07-29T03:38:59;97819.94;;;16.93;100.00
60589;BME280;46421;48.610;9.334;2022-07-29T03:41:25;97822.97;;;16.52;100.00
60589;BME280;46421;48.610;9.334;2022-07-29T03:43:51;97820.63;;;16.37;100.00
60589;BME280;46421;48.610;9.334;2022-07-29T03:46:20;97816.78;;;16.26;100.00
60589;BME280;46421;48.610;9.334;2022-07-29T03:48:48;97824.28;;;16.43;100.00
60589;BME280;46421;48.610;9.334;2022-07-29T03:51:15;97827.63;;;16.64;100.00
60589;BME280;46421;48.610;9.334;2022-07-29T03:53:41;97824.78;;;16.58;100.00
60589;BME280;46421;48.610;9.334;2022-07-29T03:56:07;97829.34;;;16.76;100.00
60589;BME280;46421;48.610;9.334;2022-07-29T03:58:35;97831.38;;;16.81;100.00
60589;BME280;46421;48.610;9.334;2022-07-29T04:01:00;97832.97;;;16.89;100.00
60589;BME280;46421;48.610;9.334;2022-07-29T04:03:26;97840.00;;;17.09;100.00
60589;BME280;46421;48.610;9.334;2022-07-29T04:06:03;97840.00;;;17.09;100.00
60589;BME280;46421;48.610;9.334;2022-07-29T04:08:28;97836.94;;;17.05;100.00
60589;BME280;46421;48.610;9.334;2022-07-29T04:10:54;97842.47;;;16.85;100.00
60589;BME280;46421;48.610;9.334;2022-07-29T04:13:20;97843.16;;;16.80;100.00
60589;BME280;46421;48.610;9.334;2022-07-29T04:15:45;97845.53;;;16.88;100.00
60589;BME280;46421;48.610;9.334;2022-07-29T04:18:11;97847.59;;;17.30;100.00
60589;BME280;46421;48.610;9.334;2022-07-29T04:20:36;97848.94;;;17.58;100.00
60589;BME280;46421;48.610;9.334;2022-07-29T04:23:01;97844.41;;;17.40;100.00
60589;BME280;46421;48.610;9.334;2022-07-29T04:25:27;97849.44;;;17.67;100.00
60589;BME280;46421;48.610;9.334;2022-07-29T04:27:52;97847.06;;;17.89;100.00
60589;BME280;46421;48.610;9.334;2022-07-29T04:30:17;97852.59;;;18.37;98.25
60589;BME280;46421;48.610;9.334;2022-07-29T04:32:43;97856.25;;;18.00;96.46
60589;BME280;46421;48.610;9.334;2022-07-29T04:35:08;97858.78;;;17.46;97.65
60589;BME280;46421;48.610;9.334;2022-07-29T04:37:33;97855.53;;;17.44;100.00
60589;BME280;46421;48.610;9.334;2022-07-29T04:39:58;97861.09;;;17.61;100.00
60589;BME280;46421;48.610;9.334;2022-07-29T04:42:24;97858.00;;;17.76;100.00
60589;BME280;46421;48.610;9.334;2022-07-29T04:44:49;97861.47;;;17.95;100.00
60589;BME280;46421;48.610;9.334;2022-07-29T04:47:14;97867.31;;;17.92;100.00
60589;BME280;46421;48.610;9.334;2022-07-29T04:49:39;97868.94;;;17.93;100.00
60589;BME280;46421;48.610;9.334;2022-07-29T04:52:06;97864.31;;;18.30;100.00
60589;BME280;46421;48.610;9.334;2022-07-29T04:54:31;97865.09;;;18.31;96.12
60589;BME280;46421;48.610;9.334;2022-07-29T04:56:56;97857.94;;;17.94;97.88
60589;BME280;46421;48.610;9.334;2022-07-29T04:59:22;97861.38;;;17.71;98.83
60589;BME280;46421;48.610;9.334;2022-07-29T05:01:47;97853.00;;;17.79;98.40
60589;BME280;46421;48.610;9.334;2022-07-29T05:04:12;97862.13;;;17.78;100.00
60589;BME280;46421;48.610;9.334;2022-07-29T05:06:37;97863.56;;;17.93;100.00
60589;BME280;46421;48.610;9.334;2022-07-29T05:09:03;97864.50;;;17.86;100.00
60589;BME280;46421;48.610;9.334;2022-07-29T05:11:28;97869.25;;;18.03;100.00
60589;BME280;46421;48.610;9.334;2022-07-29T05:13:53;97866.41;;;17.98;100.00
60589;BME280;46421;48.610;9.334;2022-07-29T05:16:18;97868.72;;;18.25;100.00
60589;BME280;46421;48.610;9.334;2022-07-29T05:18:44;97862.34;;;18.49;99.38
60589;BME280;46421;48.610;9.334;2022-07-29T05:21:10;97864.31;;;18.90;97.93
60589;BME280;46421;48.610;9.334;2022-07-29T05:23:35;97865.28;;;18.95;96.10
60589;BME280;46421;48.610;9.334;2022-07-29T05:26:00;97868.34;;;19.11;95.35
60589;BME280;46421;48.610;9.334;2022-07-29T05:28:26;97866.00;;;19.03;96.30
60589;BME280;46421;48.610;9.334;2022-07-29T05:30:51;97874.56;;;19.00;97.31
60589;BME280;46421;48.610;9.334;2022-07-29T05:33:16;97876.75;;;19.15;97.88
60589;BME280;46421;48.610;9.334;2022-07-29T05:35:41;97874.63;;;19.40;95.59
60589;BME280;46421;48.610;9.334;2022-07-29T05:38:07;97874.31;;;19.66;90.07
60589;BME280;46421;48.610;9.334;2022-07-29T05:40:32;97873.00;;;19.68;89.28
60589;BME280;46421;48.610;9.334;2022-07-29T05:42:57;97882.44;;;19.54;89.89
60589;BME280;46421;48.610;9.334;2022-07-29T05:45:23;97873.16;;;19.62;93.73
60589;BME280;46421;48.610;9.334;2022-07-29T05:47:48;97881.69;;;19.70;92.87
60589;BME280;46421;48.610;9.334;2022-07-29T05:50:13;97882.59;;;19.88;92.72
60589;BME280;46421;48.610;9.334;2022-07-29T05:52:38;97884.41;;;19.99;91.16
60589;BME280;46421;48.610;9.334;2022-07-29T05:55:04;97882.22;;;19.96;89.09
60589;BME280;46421;48.610;9.334;2022-07-29T05:57:29;97884.56;;;20.38;88.24
60589;BME280;46421;48.610;9.334;2022-07-29T05:59:57;97883.56;;;20.74;88.32
60589;BME280;46421;48.610;9.334;2022-07-29T06:02:23;97888.44;;;20.77;88.62
60589;BME280;46421;48.610;9.334;2022-07-29T06:04:48;97889.25;;;20.94;90.28
60589;BME280;46421;48.610;9.334;2022-07-29T06:07:13;97895.09;;;21.25;86.96
60589;BME280;46421;48.610;9.334;2022-07-29T06:09:39;97889.41;;;21.44;82.50
60589;BME280;46421;48.610;9.334;2022-07-29T06:12:04;97901.59;;;21.46;82.85
60589;BME280;46421;48.610;9.334;2022-07-29T06:14:29;97895.69;;;21.50;85.02
60589;BME280;46421;48.610;9.334;2022-07-29T06:16:55;97888.50;;;20.99;85.69
60589;BME280;46421;48.610;9.334;2022-07-29T06:19:20;97897.63;;;20.76;87.69
60589;BME280;46421;48.610;9.334;2022-07-29T06:21:46;97894.75;;;20.82;88.52
60589;BME280;46421;48.610;9.334;2022-07-29T06:24:13;97895.56;;;21.00;88.45
60589;BME280;46421;48.610;9.334;2022-07-29T06:26:39;97892.38;;;21.03;87.55
60589;BME280;46421;48.610;9.334;2022-07-29T06:29:06;97903.28;;;21.53;86.54
60589;BME280;46421;48.610;9.334;2022-07-29T06:31:31;97900.94;;;22.33;81.75
60589;BME280;46421;48.610;9.334;2022-07-29T06:33:56;97900.34;;;22.53;80.89
60589;BME280;46421;48.610;9.334;2022-07-29T06:36:22;97906.84;;;22.90;81.27
60589;BME280;46421;48.610;9.334;2022-07-29T06:38:47;97903.06;;;23.29;76.95
60589;BME280;46421;48.610;9.334;2022-07-29T06:41:12;97897.41;;;23.94;70.78
60589;BME280;46421;48.610;9.334;2022-07-29T06:43:39;97902.16;;;24.76;68.66
60589;BME280;46421;48.610;9.334;2022-07-29T06:46:10;97899.34;;;25.28;66.31
60589;BME280;46421;48.610;9.334;2022-07-29T06:48:36;97907.91;;;27.01;59.52
60589;BME280;46421;48.610;9.334;2022-07-29T06:51:03;97903.88;;;28.52;52.04
60589;BME280;46421;48.610;9.334;2022-07-29T06:53:29;97904.91;;;29.50;49.00
60589;BME280;46421;48.610;9.334;2022-07-29T06:55:54;97905.19;;;29.77;47.92
60589;BME280;46421;48.610;9.334;2022-07-29T06:58:19;97911.41;;;29.55;47.77
60589;BME280;46421;48.610;9.334;2022-07-29T07:00:45;97911.88;;;30.72;45.03
60589;BME280;46421;48.610;9.334;2022-07-29T07:03:11;97916.47;;;31.97;43.60
60589;BME280;46421;48.610;9.334;2022-07-29T07:05:36;97916.28;;;31.94;41.84
60589;BME280;46421;48.610;9.334;2022-07-29T07:08:02;97914.59;;;32.77;40.83
60589;BME280;46421;48.610;9.334;2022-07-29T07:10:27;97918.78;;;32.30;40.50
60589;BME280;46421;48.610;9.334;2022-07-29T07:12:52;97919.25;;;32.68;41.04
60589;BME280;46421;48.610;9.334;2022-07-29T07:15:18;97919.28;;;33.71;39.92
60589;BME280;46421;48.610;9.334;2022-07-29T07:17:43;97926.53;;;33.46;40.87
60589;BME280;46421;48.610;9.334;2022-07-29T07:20:09;97931.59;;;33.35;43.01
60589;BME280;46421;48.610;9.334;2022-07-29T07:22:34;97922.13;;;32.98;41.20
60589;BME280;46421;48.610;9.334;2022-07-29T07:24:59;97927.66;;;32.89;41.36
60589;BME280;46421;48.610;9.334;2022-07-29T07:27:25;97924.06;;;33.83;39.01
60589;BME280;46421;48.610;9.334;2022-07-29T07:29:50;97921.44;;;33.66;39.73
60589;BME280;46421;48.610;9.334;2022-07-29T07:32:15;97923.59;;;31.58;43.23
60589;BME280;46421;48.610;9.334;2022-07-29T07:34:43;97922.44;;;28.89;50.11
60589;BME280;46421;48.610;9.334;2022-07-29T07:37:08;97926.09;;;26.81;57.28
60589;BME280;46421;48.610;9.334;2022-07-29T07:39:34;97920.28;;;27.90;55.08
60589;BME280;46421;48.610;9.334;2022-07-29T07:41:59;97927.84;;;29.55;50.62
60589;BME280;46421;48.610;9.334;2022-07-29T07:44:24;97926.00;;;31.51;45.79
60589;BME280;46421;48.610;9.334;2022-07-29T07:46:50;97918.44;;;32.93;42.66
60589;BME280;46421;48.610;9.334;2022-07-29T07:49:15;97926.88;;;32.88;41.77
60589;BME280;46421;48.610;9.334;2022-07-29T07:51:40;97925.03;;;33.01;39.80
60589;BME280;46421;48.610;9.334;2022-07-29T07:54:06;97923.94;;;32.93;41.88
60589;BME280;46421;48.610;9.334;2022-07-29T07:56:31;97923.16;;;32.23;42.11
60589;BME280;46421;48.610;9.334;2022-07-29T07:58:56;97925.75;;;32.45;44.33
60589;BME280;46421;48.610;9.334;2022-07-29T08:01:21;97923.16;;;32.31;43.45
60589;BME280;46421;48.610;9.334;2022-07-29T08:03:47;97922.16;;;32.89;38.83
60589;BME280;46421;48.610;9.334;2022-07-29T08:06:12;97925.56;;;34.32;39.51
60589;BME280;46421;48.610;9.334;2022-07-29T08:08:37;97928.00;;;34.55;38.57
60589;BME280;46421;48.610;9.334;2022-07-29T08:11:03;97932.63;;;35.30;34.50
60589;BME280;46421;48.610;9.334;2022-07-29T08:13:28;97927.56;;;34.01;36.36
60589;BME280;46421;48.610;9.334;2022-07-29T08:15:54;97924.72;;;34.40;37.05
60589;BME280;46421;48.610;9.334;2022-07-29T08:18:19;97926.44;;;34.24;34.18
60589;BME280;46421;48.610;9.334;2022-07-29T08:20:44;97934.28;;;33.05;38.07
60589;BME280;46421;48.610;9.334;2022-07-29T08:23:10;97929.69;;;31.78;38.47
60589;BME280;46421;48.610;9.334;2022-07-29T08:25:36;97932.16;;;33.02;36.43
60589;BME280;46421;48.610;9.334;2022-07-29T08:28:02;97925.91;;;32.84;36.57
60589;BME280;46421;48.610;9.334;2022-07-29T08:30:27;97926.16;;;33.09;35.49
60589;BME280;46421;48.610;9.334;2022-07-29T08:32:53;97931.63;;;34.04;37.15
60589;BME280;46421;48.610;9.334;2022-07-29T08:35:22;97914.66;;;34.35;37.76
60589;BME280;46421;48.610;9.334;2022-07-29T08:37:47;97926.19;;;34.59;36.29
60589;BME280;46421;48.610;9.334;2022-07-29T08:40:13;97923.63;;;33.81;35.54
60589;BME280;46421;48.610;9.334;2022-07-29T08:42:38;97925.16;;;31.82;38.04
60589;BME280;46421;48.610;9.334;2022-07-29T08:45:04;97919.66;;;33.31;37.49
60589;BME280;46421;48.610;9.334;2022-07-29T08:47:30;97917.66;;;34.51;35.90
60589;BME280;46421;48.610;9.334;2022-07-29T08:49:55;97921.59;;;33.13;35.48
60589;BME280;46421;48.610;9.334;2022-07-29T08:52:21;97923.56;;;33.13;37.96
60589;BME280;46421;48.610;9.334;2022-07-29T08:54:47;97923.84;;;34.82;37.49
60589;BME280;46421;48.610;9.334;2022-07-29T08:57:14;97926.19;;;34.38;32.90
60589;BME280;46421;48.610;9.334;2022-07-29T08:59:42;97929.91;;;34.12;35.63
60589;BME280;46421;48.610;9.334;2022-07-29T09:02:16;97921.72;;;34.45;34.66
60589;BME280;46421;48.610;9.334;2022-07-29T09:04:43;97916.94;;;34.55;32.58
60589;BME280;46421;48.610;9.334;2022-07-29T09:07:09;97929.91;;;35.67;34.38
60589;BME280;46421;48.610;9.334;2022-07-29T09:09:34;97930.97;;;36.97;29.75
60589;BME280;46421;48.610;9.334;2022-07-29T09:12:00;97935.72;;;37.29;28.63
60589;BME280;46421;48.610;9.334;2022-07-29T09:14:26;97937.75;;;36.31;31.85
60589;BME280;46421;48.610;9.334;2022-07-29T09:16:54;97931.84;;;34.96;32.58
60589;BME280;46421;48.610;9.334;2022-07-29T09:19:24;97938.38;;;36.12;29.86
60589;BME280;46421;48.610;9.334;2022-07-29T09:21:50;97930.28;;;35.20;30.09
60589;BME280;46421;48.610;9.334;2022-07-29T09:24:15;97928.72;;;35.56;31.10
60589;BME280;46421;48.610;9.334;2022-07-29T09:26:45;97927.66;;;36.92;31.16
60589;BME280;46421;48.610;9.334;2022-07-29T09:29:15;97921.81;;;35.50;31.30
60589;BME280;46421;48.610;9.334;2022-07-29T09:31:46;97917.19;;;35.78;32.00
60589;BME280;46421;48.610;9.334;2022-07-29T09:34:12;97917.91;;;35.75;31.07
60589;BME280;46421;48.610;9.334;2022-07-29T09:36:43;97911.22;;;34.17;36.01
60589;BME280;46421;48.610;9.334;2022-07-29T09:39:09;97903.69;;;34.27;37.30
60589;BME280;46421;48.610;9.334;2022-07-29T09:41:51;97917.06;;;33.17;37.30
60589;BME280;46421;48.610;9.334;2022-07-29T09:44:18;97907.16;;;33.25;34.14
60589;BME280;46421;48.610;9.334;2022-07-29T09:47:03;97914.44;;;32.38;35.36
60589;BME280;46421;48.610;9.334;2022-07-29T09:49:29;97905.97;;;32.08;35.79
60589;BME280;46421;48.610;9.334;2022-07-29T09:52:08;97910.44;;;33.09;40.91
60589;BME280;46421;48.610;9.334;2022-07-29T09:54:35;97904.47;;;31.84;36.66
60589;BME280;46421;48.610;9.334;2022-07-29T09:57:01;97905.03;;;31.55;35.83
60589;BME280;46421;48.610;9.334;2022-07-29T09:59:26;97898.44;;;31.16;39.41
60589;BME280;46421;48.610;9.334;2022-07-29T10:01:52;97893.41;;;31.58;38.18
60589;BME280;46421;48.610;9.334;2022-07-29T10:04:18;97897.28;;;30.26;40.82
60589;BME280;46421;48.610;9.334;2022-07-29T10:07:00;97893.97;;;30.74;39.00
60589;BME280;46421;48.610;9.334;2022-07-29T10:09:26;97893.72;;;31.65;36.39
60589;BME280;46421;48.610;9.334;2022-07-29T10:12:12;97897.50;;;31.69;38.53
60589;BME280;46421;48.610;9.334;2022-07-29T10:14:37;97897.56;;;31.47;36.02
60589;BME280;46421;48.610;9.334;2022-07-29T10:17:04;97888.50;;;32.83;35.92
60589;BME280;46421;48.610;9.334;2022-07-29T10:19:31;97892.31;;;34.07;35.24
60589;BME280;46421;48.610;9.334;2022-07-29T10:21:58;97893.88;;;34.38;31.35
60589;BME280;46421;48.610;9.334;2022-07-29T10:24:26;97884.84;;;34.50;32.63
60589;BME280;46421;48.610;9.334;2022-07-29T10:26:53;97888.16;;;34.22;32.33
60589;BME280;46421;48.610;9.334;2022-07-29T10:29:19;97883.50;;;35.48;31.50
60589;BME280;46421;48.610;9.334;2022-07-29T10:34:25;97874.03;;;35.61;29.61
60589;BME280;46421;48.610;9.334;2022-07-29T10:40:17;97875.88;;;33.68;33.08
60589;BME280;46421;48.610;9.334;2022-07-29T10:42:47;97879.63;;;32.51;35.23
60589;BME280;46421;48.610;9.334;2022-07-29T10:45:16;97872.97;;;32.70;33.35
60589;BME280;46421;48.610;9.334;2022-07-29T10:47:42;97866.50;;;31.87;36.10
60589;BME280;46421;48.610;9.334;2022-07-29T10:50:07;97859.00;;;30.57;37.61
60589;BME280;46421;48.610;9.334;2022-07-29T10:52:56;97865.44;;;30.16;38.99
60589;BME280;46421;48.610;9.334;2022-07-29T10:55:38;97859.63;;;29.95;40.47
60589;BME280;46421;48.610;9.334;2022-07-29T10:58:13;97849.22;;;29.27;40.99
60589;BME280;46421;48.610;9.334;2022-07-29T11:00:39;97850.06;;;29.42;40.44
60589;BME280;46421;48.610;9.334;2022-07-29T11:03:04;97848.59;;;29.30;41.85
60589;BME280;46421;48.610;9.334;2022-07-29T11:05:30;97848.09;;;31.38;37.70
60589;BME280;46421;48.610;9.334;2022-07-29T11:08:19;97858.66;;;30.13;39.09
60589;BME280;46421;48.610;9.334;2022-07-29T11:10:44;97858.75;;;29.30;42.94
60589;BME280;46421;48.610;9.334;2022-07-29T11:13:09;97863.78;;;27.90;43.20
60589;BME280;46421;48.610;9.334;2022-07-29T11:15:54;97859.56;;;27.30;44.38
60589;BME280;46421;48.610;9.334;2022-07-29T11:18:20;97851.09;;;27.08;45.58
60589;BME280;46421;48.610;9.334;2022-07-29T11:20:49;97846.41;;;27.62;45.80
60589;BME280;46421;48.610;9.334;2022-07-29T11:23:18;97845.94;;;29.95;39.26
60589;BME280;46421;48.610;9.334;2022-07-29T11:25:45;97854.59;;;30.70;38.12
60589;BME280;46421;48.610;9.334;2022-07-29T11:28:16;97861.84;;;31.06;37.86
60589;BME280;46421;48.610;9.334;2022-07-29T11:30:53;97860.31;;;30.60;38.46
60589;BME280;46421;48.610;9.334;2022-07-29T11:33:33;97867.34;;;30.52;39.83
60589;BME280;46421;48.610;9.334;2022-07-29T11:36:19;97880.25;;;29.23;40.56
60589;BME280;46421;48.610;9.334;2022-07-29T11:38:44;97870.69;;;28.02;44.55
60589;BME280;46421;48.610;9.334;2022-07-29T11:41:39;97872.00;;;28.10;44.57
60589;BME280;46421;48.610;9.334;2022-07-29T11:44:04;97883.19;;;28.08;43.08
60589;BME280;46421;48.610;9.334;2022-07-29T11:46:47;97891.53;;;29.49;39.47
60589;BME280;46421;48.610;9.334;2022-07-29T11:49:19;97894.56;;;27.23;41.98
60589;BME280;46421;48.610;9.334;2022-07-29T11:51:50;97904.03;;;28.42;41.37
60589;BME280;46421;48.610;9.334;2022-07-29T11:54:15;97913.75;;;27.42;42.83
60589;BME280;46421;48.610;9.334;2022-07-29T11:56:47;97920.09;;;25.89;46.06
60589;BME280;46421;48.610;9.334;2022-07-29T11:59:13;97940.38;;;24.43;56.08
60589;BME280;46421;48.610;9.334;2022-07-29T12:01:52;97935.78;;;23.60;61.65
60589;BME280;46421;48.610;9.334;2022-07-29T12:04:17;97936.63;;;22.85;64.42
60589;BME280;46421;48.610;9.334;2022-07-29T12:06:42;97928.31;;;22.97;60.87
60589;BME280;46421;48.610;9.334;2022-07-29T12:09:08;97912.53;;;22.88;60.86
60589;BME280;46421;48.610;9.334;2022-07-29T12:11:34;97919.91;;;23.31;60.59
60589;BME280;46421;48.610;9.334;2022-07-29T12:13:59;97922.72;;;23.57;63.41
60589;BME280;46421;48.610;9.334;2022-07-29T12:16:37;97922.72;;;24.20;67.40
60589;BME280;46421;48.610;9.334;2022-07-29T12:19:04;97906.19;;;24.89;59.09
60589;BME280;46421;48.610;9.334;2022-07-29T12:21:48;97909.09;;;25.39;55.32
60589;BME280;46421;48.610;9.334;2022-07-29T12:24:14;97914.03;;;26.08;53.12
60589;BME280;46421;48.610;9.334;2022-07-29T12:26:58;97908.56;;;26.52;52.12
60589;BME280;46421;48.610;9.334;2022-07-29T12:29:25;97907.00;;;25.96;53.07
60589;BME280;46421;48.610;9.334;2022-07-29T12:31:53;97909.13;;;25.44;51.63
60589;BME280;46421;48.610;9.334;2022-07-29T12:34:20;97911.06;;;25.18;54.43
60589;BME280;46421;48.610;9.334;2022-07-29T12:36:47;97916.50;;;24.97;61.69
60589;BME280;46421;48.610;9.334;2022-07-29T12:39:15;97921.38;;;24.59;57.95
60589;BME280;46421;48.610;9.334;2022-07-29T12:41:41;97917.09;;;24.78;57.76
60589;BME280;46421;48.610;9.334;2022-07-29T12:44:06;97913.81;;;24.87;60.61
60589;BME280;46421;48.610;9.334;2022-07-29T12:46:32;97914.63;;;24.98;56.83
60589;BME280;46421;48.610;9.334;2022-07-29T12:48:57;97915.16;;;24.53;61.65
60589;BME280;46421;48.610;9.334;2022-07-29T12:51:30;97912.34;;;23.96;62.98
60589;BME280;46421;48.610;9.334;2022-07-29T12:54:11;97920.44;;;23.33;70.28
60589;BME280;46421;48.610;9.334;2022-07-29T12:56:37;97928.22;;;23.19;70.20
60589;BME280;46421;48.610;9.334;2022-07-29T13:01:41;97940.72;;;22.87;73.58
60589;BME280;46421;48.610;9.334;2022-07-29T13:04:07;97929.47;;;22.41;76.33
60589;BME280;46421;48.610;9.334;2022-07-29T13:06:40;97929.38;;;22.31;76.92
60589;BME280;46421;48.610;9.334;2022-07-29T13:11:40;97933.75;;;23.02;69.91
60589;BME280;46421;48.610;9.334;2022-07-29T13:14:09;97930.69;;;23.74;64.49
60589;BME280;46421;48.610;9.334;2022-07-29T13:16:36;97925.91;;;23.96;62.24
60589;BME280;46421;48.610;9.334;2022-07-29T13:19:10;97923.78;;;24.14;59.72
60589;BME280;46421;48.610;9.334;2022-07-29T13:21:37;97924.38;;;24.57;59.46
60589;BME280;46421;48.610;9.334;2022-07-29T13:24:04;97920.31;;;25.12;55.46